This is the latest recevied weather packets stored in our database for station/object EA1IWF-10. If no packets are shown the sender has not sent any weather packets the latest 10 day(s).
| Time | Temp. | Humidity | Pressure | Rain* | Wind** | Luminosity | Snow |
|---|---|---|---|---|---|---|---|
| 1778171590 | 23.89° C | 30% | 1012.2 hPa | - | - | - | - |
| 1778170689 | 30° C | 22% | 1012.3 hPa | - | - | - | - |
| 1778169788 | 31.11° C | 22% | 1012.3 hPa | - | - | - | - |
| 1778168887 | 31.11° C | 22% | 1012.2 hPa | - | - | - | - |
| 1778167987 | 28.89° C | 25% | 1012.3 hPa | - | - | - | - |
| 1778167086 | 32.22° C | 20% | 1012 hPa | - | - | - | - |
| 1778166185 | 32.22° C | 20% | 1012 hPa | - | - | - | - |
| 1778165284 | 32.78° C | 20% | 1012.3 hPa | - | - | - | - |
| 1778164383 | 29.44° C | 22% | 1012.3 hPa | - | - | - | - |
| 1778163482 | 33.33° C | 19% | 1012.4 hPa | - | - | - | - |
| 1778162581 | 27.22° C | 26% | 1012.5 hPa | - | - | - | - |
| 1778161680 | 23.89° C | 30% | 1012.7 hPa | - | - | - | - |
| 1778160779 | 24.44° C | 36% | 1013.1 hPa | - | - | - | - |
| 1778160746 | 22.78° C | 36% | 1013.3 hPa | - | - | - | - |
| 1778160672 | 23.89° C | 37% | 1013.2 hPa | - | - | - | - |
| 1778160638 | 23.33° C | 38% | 1013.3 hPa | - | - | - | - |
| 1778160604 | 22.78° C | 38% | 1013.2 hPa | - | - | - | - |
| 1778160570 | 21.67° C | 39% | 1013.2 hPa | - | - | - | - |
| 1778134283 | 11.67° C | 79% | 1014.1 hPa | - | - | - | - |
| 1778110211 | 18.33° C | 47% | 1014.3 hPa | - | - | - | - |
| 1778108978 | 18.33° C | 46% | 1014.3 hPa | - | - | - | - |
| 1778108925 | 17.22° C | 46% | 1014.3 hPa | - | - | - | - |
| 1778108024 | 17.22° C | 45% | 1014.4 hPa | - | - | - | - |
| 1778107123 | 17.22° C | 45% | 1014.4 hPa | - | - | - | - |
| 1778106223 | 17.22° C | 44% | 1014.5 hPa | - | - | - | - |
* Rain since midnight (hover to see other rain measurements)
** Current wind speed in m/s (hover to see current wind gust speed)